Pagina principale
METAR-TAF:

METAR-TAF

Aeroporti :

Adıyaman, Turchia

latitudine: 37-43-54N, longitudine: 38-28-08E, altezza: 675 m

Osservazione

Il bollettino è stato emesso 58 minuti fa, alle 05:50 UTC
Vento 4 kt da nord-est
Temperature 10°C
Umidità 40%
Pressione 1024 hPa
Visibilità 10 km o più
nessuna nube inferiore a 1500 m e nessun cumulonembo

METAR: LTCP 180550Z 05004KT CAVOK 10/M03 Q1024

Ora: 09:48 (06:48 UTC)

Previsione

Il bollettino è stato emesso 2 ore e 8 minuti fa, alle 04:40 UTC
Previsione valida dal 18 alle 06 UTC al 18 alle 15 UTC
Vento 2 kt da direzioni variabili
Visibilità 10 km o più
nessuna nube inferiore a 1500 m e nessun cumulonembo

TAF: LTCP 180440Z 1806/1815 VRB02KT CAVOK

Osservazioni e previsioni meteorologiche di più di 4000 aeroporti (messaggi METAR e TAF).

Le stazioni disponibili sono rappresentate dai dischi gialli e rossi sulla carta.

Puntare il mouse per vedere il nome della stazione.

Clicca sopra per visualizzare le osservazioni e previsioni meteorologiche.

Per cambiare la mappa : fare clic sui pulsanti verdi con una croce nera per ingrandire, il pulsante verde con un trattino per diminuire, o sulla freccia verde per le mappe adiacenti.


METAR-TAF: